Time;durP1;ratioP1;P1;durP2;ratioP2;P2;SDS_P1;SDS_P2;PMS_P1;PMS_P2;Temp;Humidity;BMP_temperature;BMP_pressure;BME280_temperature;BME280_humidity;BME280_pressure;Samples;Min_cycle;Max_cycle;Signal;HPM_P1;HPM_P2
2023/01/18 00:00:33;;;;;;;5.23;4.33;;;6.50;99.90;;;;;;5016339;28;20180;-53
2023/01/18 00:02:58;;;;;;;4.60;4.20;;;6.60;99.90;;;;;;5016744;28;20211;-57
2023/01/18 00:05:24;;;;;;;5.53;3.90;;;6.50;99.90;;;;;;5012688;28;20261;-53
2023/01/18 00:07:51;;;;;;;4.70;4.00;;;6.50;99.90;;;;;;5017305;28;20744;-53
2023/01/18 00:10:17;;;;;;;5.20;4.20;;;6.40;99.90;;;;;;5017080;28;20252;-52
2023/01/18 00:12:43;;;;;;;4.20;3.80;;;6.50;99.90;;;;;;5017603;28;20207;-56
2023/01/18 00:15:09;;;;;;;4.37;3.67;;;6.50;99.90;;;;;;5015098;28;20180;-55
2023/01/18 00:17:46;;;;;;;4.23;3.80;;;6.50;99.90;;;;;;5012062;28;20209;-52
2023/01/18 00:20:13;;;;;;;5.90;4.03;;;6.50;99.90;;;;;;5014204;28;20215;-55
2023/01/18 00:22:38;;;;;;;4.83;3.57;;;6.60;99.90;;;;;;5014149;28;20200;-54
2023/01/18 00:25:04;;;;;;;3.80;3.40;;;6.50;99.90;;;;;;5013718;28;20227;-55
2023/01/18 00:27:29;;;;;;;5.00;4.07;;;6.50;99.90;;;;;;5013692;28;20192;-54
2023/01/18 00:29:57;;;;;;;5.20;4.17;;;6.40;99.90;;;;;;5013910;28;20184;-54
2023/01/18 00:32:23;;;;;;;4.80;3.77;;;6.30;99.90;;;;;;5013710;28;20176;-55
2023/01/18 00:34:49;;;;;;;4.40;3.60;;;6.30;99.90;;;;;;5013748;28;20652;-54
2023/01/18 00:37:14;;;;;;;4.37;3.97;;;6.30;99.90;;;;;;5013126;28;20207;-57
2023/01/18 00:39:40;;;;;;;4.40;3.80;;;6.20;99.90;;;;;;5013780;28;20180;-53
2023/01/18 00:44:49;;;;;;;6.40;3.93;;;6.20;99.90;;;;;;5013670;28;20183;-55
2023/01/18 00:47:15;;;;;;;4.40;4.00;;;6.30;99.90;;;;;;5013581;28;20204;-55
2023/01/18 00:49:41;;;;;;;5.97;4.00;;;6.30;99.90;;;;;;5013499;28;20519;-55
2023/01/18 00:52:07;;;;;;;4.70;4.17;;;6.30;99.90;;;;;;5013707;28;20177;-55
2023/01/18 00:54:32;;;;;;;5.67;4.60;;;6.30;99.90;;;;;;5013218;28;20177;-54
2023/01/18 00:56:58;;;;;;;4.70;4.13;;;6.20;99.90;;;;;;5013283;28;20215;-56
2023/01/18 00:59:23;;;;;;;7.23;4.50;;;6.20;99.90;;;;;;5012795;28;20235;-56
2023/01/18 01:01:49;;;;;;;4.60;3.90;;;6.20;99.90;;;;;;5013397;28;20703;-55
2023/01/18 01:06:59;;;;;;;5.00;4.40;;;6.20;99.90;;;;;;5012553;28;20204;-55
2023/01/18 01:09:26;;;;;;;4.77;4.30;;;6.10;99.90;;;;;;5013245;28;20176;-56
2023/01/18 01:28:23;;;;;;;6.03;4.77;;;5.90;99.90;;;;;;4972861;28;20603;-53
2023/01/18 01:30:49;;;;;;;5.83;5.23;;;5.90;99.90;;;;;;4974016;28;20201;-54
2023/01/18 01:33:16;;;;;;;6.57;5.50;;;5.90;99.90;;;;;;4974061;28;20264;-55
2023/01/18 01:35:41;;;;;;;8.37;6.40;;;5.90;99.90;;;;;;4973480;28;20177;-53
2023/01/18 01:38:07;;;;;;;8.07;6.30;;;5.90;99.90;;;;;;4973894;28;20532;-54
2023/01/18 01:40:33;;;;;;;5.30;4.80;;;5.80;99.90;;;;;;4973768;28;20209;-55
2023/01/18 01:42:58;;;;;;;5.70;5.13;;;5.80;99.90;;;;;;4973723;28;20216;-53
2023/01/18 01:45:28;;;;;;;6.87;5.50;;;5.90;99.90;;;;;;4973431;28;20695;-54
2023/01/18 01:47:56;;;;;;;6.33;5.27;;;5.80;99.90;;;;;;4972961;28;20248;-53
2023/01/18 01:50:31;;;;;;;7.23;5.80;;;5.80;99.90;;;;;;4973177;28;20636;-55
2023/01/18 01:52:57;;;;;;;7.43;6.13;;;5.80;99.90;;;;;;4973387;28;20219;-53
2023/01/18 01:55:35;;;;;;;6.33;5.50;;;5.70;99.90;;;;;;4972677;28;20280;-53
2023/01/18 01:58:09;;;;;;;7.47;5.70;;;5.60;99.90;;;;;;4971516;28;20217;-53
2023/01/18 02:00:35;;;;;;;6.40;5.77;;;5.60;99.90;;;;;;4973306;28;20181;-53
2023/01/18 02:03:07;;;;;;;6.03;5.23;;;5.50;99.90;;;;;;4972605;28;20198;-53
2023/01/18 02:05:39;;;;;;;6.00;5.40;;;5.50;99.90;;;;;;4973038;28;20178;-56
2023/01/18 02:08:10;;;;;;;7.00;5.57;;;5.50;99.90;;;;;;4973187;28;20193;-53
2023/01/18 02:10:36;;;;;;;7.53;6.23;;;5.50;99.90;;;;;;4972287;28;20173;-55
2023/01/18 02:13:03;;;;;;;6.60;5.90;;;5.30;99.90;;;;;;4971634;28;20822;-54
2023/01/18 02:15:43;;;;;;;8.30;5.87;;;5.10;99.90;;;;;;4971268;28;20197;-56
2023/01/18 02:18:31;;;;;;;7.63;6.13;;;5.10;99.90;;;;;;4971435;28;20344;-54
2023/01/18 02:20:59;;;;;;;6.53;5.80;;;5.00;99.90;;;;;;4973164;28;20808;-53
2023/01/18 02:23:47;;;;;;;8.33;5.90;;;5.00;99.90;;;;;;4972860;28;20233;-55
2023/01/18 02:26:40;;;;;;;8.40;6.73;;;5.00;99.90;;;;;;4987875;28;20202;-56
2023/01/18 02:29:16;;;;;;;7.00;5.57;;;5.00;99.90;;;;;;4972962;28;20639;-53
2023/01/18 02:32:07;;;;;;;6.50;5.30;;;5.00;99.90;;;;;;4972969;28;20270;-53
2023/01/18 02:34:46;;;;;;;6.93;5.83;;;5.10;99.90;;;;;;4972524;28;20269;-56
2023/01/18 02:37:29;;;;;;;8.10;6.60;;;5.10;99.90;;;;;;4972870;28;20220;-57
2023/01/18 02:40:17;;;;;;;6.93;6.10;;;5.10;99.90;;;;;;4972491;28;20200;-52
2023/01/18 02:48:23;;;;;;;9.03;7.37;;;5.00;99.90;;;;;;4973139;28;20567;-51
2023/01/18 02:50:50;;;;;;;6.83;5.77;;;5.00;99.90;;;;;;4972718;28;20182;-55
2023/01/18 02:53:15;;;;;;;6.67;5.97;;;4.90;99.90;;;;;;4972855;28;20181;-53
2023/01/18 02:55:51;;;;;;;6.87;6.00;;;4.90;99.90;;;;;;4972241;28;20185;-54
2023/01/18 02:58:33;;;;;;;7.70;6.63;;;4.90;99.90;;;;;;4972614;28;20193;-54
2023/01/18 03:01:13;;;;;;;6.87;6.17;;;4.90;99.90;;;;;;4972743;28;20550;-52
2023/01/18 03:03:44;;;;;;;7.93;6.50;;;4.80;99.90;;;;;;4972476;28;20462;-54
2023/01/18 03:06:10;;;;;;;7.87;6.27;;;4.70;99.90;;;;;;4972361;28;20512;-55
2023/01/18 03:08:48;;;;;;;9.80;6.37;;;4.60;99.90;;;;;;4972879;28;20204;-56
2023/01/18 03:11:24;;;;;;;7.50;5.93;;;4.60;99.90;;;;;;4972454;28;20173;-55
2023/01/18 03:14:11;;;;;;;6.23;5.47;;;4.50;99.90;;;;;;4972514;28;20906;-55
2023/01/18 03:16:59;;;;;;;6.73;6.03;;;4.50;99.90;;;;;;4971991;28;20429;-54
2023/01/18 03:23:36;;;;;;;7.27;6.00;;;4.40;99.90;;;;;;4972636;28;20826;-54
2023/01/18 03:25:12;;;;;;;6.13;5.30;;;4.40;99.90;;;;;;4970900;28;20499;-53
2023/01/18 03:35:58;;;;;;;6.30;5.23;;;4.60;99.90;;;;;;5011156;28;20789;-55
2023/01/18 03:38:24;;;;;;;7.00;6.07;;;4.70;99.90;;;;;;5010855;28;20455;-53
2023/01/18 03:40:50;;;;;;;6.90;6.20;;;4.80;99.90;;;;;;5011261;28;20573;-53
2023/01/18 03:43:19;;;;;;;9.07;6.53;;;4.70;99.90;;;;;;5009717;28;20451;-53
2023/01/18 03:45:48;;;;;;;8.03;7.23;;;4.70;99.90;;;;;;5010923;28;20180;-54
2023/01/18 03:48:14;;;;;;;8.30;6.70;;;4.70;99.90;;;;;;5011050;28;20419;-55
2023/01/18 03:50:55;;;;;;;7.40;6.70;;;4.70;99.90;;;;;;5011310;28;20179;-53
2023/01/18 03:53:38;;;;;;;7.33;6.63;;;4.60;99.90;;;;;;5014784;28;20490;-56
2023/01/18 03:56:12;;;;;;;7.87;7.07;;;4.60;99.90;;;;;;5014635;28;20423;-54
2023/01/18 03:58:38;;;;;;;8.83;7.37;;;4.50;99.90;;;;;;5013503;28;20438;-53
2023/01/18 04:01:05;;;;;;;7.97;6.30;;;4.90;99.90;;;;;;5014868;28;20173;-53
2023/01/18 04:03:32;;;;;;;7.37;6.60;;;4.40;99.90;;;;;;5014388;28;20286;-54
2023/01/18 04:06:01;;;;;;;9.10;7.90;;;4.40;99.90;;;;;;5014558;28;20423;-54
2023/01/18 04:08:27;;;;;;;7.67;6.87;;;4.30;99.90;;;;;;5014613;28;20173;-54
2023/01/18 04:10:52;;;;;;;8.27;7.47;;;4.30;99.90;;;;;;5014554;28;20180;-56
2023/01/18 04:13:18;;;;;;;9.20;7.00;;;4.20;99.90;;;;;;5012665;28;20191;-56
2023/01/18 04:15:43;;;;;;;7.30;6.40;;;4.20;99.90;;;;;;5011169;28;20238;-54
2023/01/18 04:18:09;;;;;;;8.13;7.20;;;4.30;99.90;;;;;;5014495;28;20729;-53
2023/01/18 04:20:34;;;;;;;7.87;7.07;;;4.30;99.90;;;;;;5014326;28;20646;-55
2023/01/18 04:23:00;;;;;;;7.90;6.00;;;4.30;99.90;;;;;;5014267;28;20203;-53
2023/01/18 04:25:25;;;;;;;9.13;6.37;;;4.40;99.90;;;;;;5013787;28;20183;-54
2023/01/18 04:27:51;;;;;;;8.30;7.20;;;4.40;99.90;;;;;;5012653;28;20282;-54
2023/01/18 04:30:17;;;;;;;6.80;6.17;;;4.40;99.90;;;;;;5011178;28;20176;-55
2023/01/18 04:32:45;;;;;;;7.33;6.50;;;4.50;99.90;;;;;;5012591;28;20264;-53
2023/01/18 04:35:11;;;;;;;6.90;6.20;;;4.50;99.90;;;;;;5012420;28;20183;-53
2023/01/18 04:37:37;;;;;;;7.20;6.50;;;4.50;99.90;;;;;;5013275;28;20470;-53
2023/01/18 04:40:03;;;;;;;8.83;7.93;;;4.40;99.90;;;;;;5013027;28;20259;-54
2023/01/18 04:42:29;;;;;;;8.90;7.03;;;4.40;99.90;;;;;;5013894;28;20283;-54
2023/01/18 04:44:55;;;;;;;8.63;6.87;;;4.50;99.90;;;;;;5012850;28;20499;-53
2023/01/18 04:47:21;;;;;;;8.87;7.03;;;4.50;99.90;;;;;;5012500;28;20220;-53
2023/01/18 04:49:46;;;;;;;7.90;6.67;;;4.60;99.90;;;;;;5014197;28;20546;-54
2023/01/18 04:52:12;;;;;;;7.73;6.97;;;4.70;99.90;;;;;;5013705;28;20256;-57
2023/01/18 04:54:37;;;;;;;8.03;7.23;;;4.70;99.90;;;;;;5013557;28;20542;-53
2023/01/18 04:57:03;;;;;;;7.90;7.20;;;4.70;99.90;;;;;;5015098;28;20204;-51
2023/01/18 04:59:28;;;;;;;8.67;7.67;;;4.70;99.90;;;;;;5013755;28;20172;-52
2023/01/18 05:01:54;;;;;;;8.53;7.03;;;4.70;99.90;;;;;;5011870;28;20164;-53
2023/01/18 05:04:20;;;;;;;7.60;6.90;;;4.70;99.90;;;;;;5010057;28;20211;-56
2023/01/18 05:06:48;;;;;;;8.00;7.10;;;4.70;99.90;;;;;;5011301;28;20188;-55
2023/01/18 05:09:14;;;;;;;7.40;6.70;;;4.80;99.90;;;;;;5011630;28;20169;-54
2023/01/18 05:11:40;;;;;;;7.83;7.03;;;4.80;99.90;;;;;;5012832;28;20419;-54
2023/01/18 05:14:06;;;;;;;7.53;6.80;;;4.90;99.90;;;;;;5013068;28;20592;-55
2023/01/18 05:16:31;;;;;;;8.20;7.40;;;4.90;99.90;;;;;;5013046;28;20201;-53
2023/01/18 05:18:57;;;;;;;8.17;7.33;;;5.00;99.90;;;;;;5012892;28;20230;-53
2023/01/18 05:21:22;;;;;;;8.40;6.83;;;5.00;99.90;;;;;;5013029;28;20601;-53
2023/01/18 05:23:48;;;;;;;7.87;6.90;;;5.00;99.90;;;;;;5012570;28;20615;-55
2023/01/18 05:26:19;;;;;;;8.53;7.70;;;5.00;99.90;;;;;;5012970;28;20196;-53
2023/01/18 05:28:46;;;;;;;7.40;6.70;;;5.00;99.90;;;;;;5013088;28;20600;-54
2023/01/18 05:31:13;;;;;;;9.30;7.97;;;4.90;99.90;;;;;;5012844;28;20411;-53
2023/01/18 05:33:39;;;;;;;7.90;6.90;;;4.90;99.90;;;;;;5012470;28;20172;-54
2023/01/18 05:36:05;;;;;;;8.87;7.50;;;4.90;99.90;;;;;;5011824;28;20169;-57
2023/01/18 05:38:30;;;;;;;8.33;7.53;;;4.80;99.90;;;;;;5011570;28;20176;-51
2023/01/18 05:40:56;;;;;;;9.37;8.10;;;4.80;99.90;;;;;;5011869;28;20177;-51
2023/01/18 05:43:25;;;;;;;9.67;7.20;;;4.70;99.90;;;;;;5011088;28;20215;-52
2023/01/18 05:45:50;;;;;;;8.73;7.33;;;4.70;99.90;;;;;;5011535;28;20194;-54
2023/01/18 05:48:16;;;;;;;9.30;7.57;;;4.70;99.90;;;;;;5012504;28;20215;-53
2023/01/18 05:50:44;;;;;;;7.50;6.70;;;4.70;99.90;;;;;;5012291;28;20207;-53
2023/01/18 05:53:10;;;;;;;8.80;7.13;;;4.70;99.90;;;;;;5012278;28;20177;-53
2023/01/18 05:55:36;;;;;;;7.77;6.97;;;4.70;99.90;;;;;;5011825;28;20234;-55
2023/01/18 05:58:01;;;;;;;8.73;7.83;;;4.70;99.90;;;;;;5011343;28;20306;-53
2023/01/18 06:00:27;;;;;;;8.93;8.00;;;4.70;99.90;;;;;;5012012;28;20177;-51
2023/01/18 06:02:53;;;;;;;10.50;8.30;;;4.70;99.90;;;;;;5011979;28;20554;-55
2023/01/18 06:05:20;;;;;;;8.53;7.33;;;4.70;99.90;;;;;;5011621;28;20177;-54
2023/01/18 06:07:46;;;;;;;8.37;7.53;;;4.70;99.90;;;;;;5012102;28;20220;-53
2023/01/18 06:10:12;;;;;;;9.00;7.67;;;6.20;99.90;;;;;;5012241;28;20469;-54
2023/01/18 06:12:38;;;;;;;8.17;7.37;;;4.70;99.90;;;;;;5011983;28;20180;-53
2023/01/18 06:15:04;;;;;;;10.03;7.70;;;4.70;99.90;;;;;;5009421;28;20172;-52
2023/01/18 06:17:30;;;;;;;9.20;8.30;;;4.70;99.90;;;;;;5007985;28;20227;-54
2023/01/18 06:19:56;;;;;;;9.23;7.43;;;4.70;99.90;;;;;;5011491;28;20223;-55
2023/01/18 06:22:22;;;;;;;11.03;8.37;;;4.70;99.90;;;;;;5011364;28;20184;-55
2023/01/18 06:24:48;;;;;;;9.60;8.17;;;4.70;99.90;;;;;;5011847;28;20165;-52
2023/01/18 06:27:14;;;;;;;9.87;8.87;;;4.70;99.90;;;;;;5011626;28;21000;-56
2023/01/18 06:29:40;;;;;;;10.43;8.80;;;4.70;99.90;;;;;;5011991;28;20184;-53
2023/01/18 06:32:05;;;;;;;9.27;8.20;;;4.60;99.90;;;;;;5011880;28;20172;-52
2023/01/18 06:34:32;;;;;;;9.57;8.57;;;4.50;99.90;;;;;;5011416;28;20176;-53
2023/01/18 06:36:57;;;;;;;9.77;8.77;;;4.40;99.90;;;;;;5011439;28;20227;-52
2023/01/18 06:39:23;;;;;;;11.20;10.03;;;4.30;99.90;;;;;;5011353;28;20447;-50
2023/01/18 06:41:49;;;;;;;13.53;12.13;;;4.10;99.90;;;;;;5010983;28;20240;-54
2023/01/18 06:44:14;;;;;;;13.07;10.30;;;4.00;99.90;;;;;;5010724;28;20208;-52
2023/01/18 06:46:42;;;;;;;10.73;9.60;;;3.90;99.90;;;;;;5010827;28;20279;-55
2023/01/18 06:49:08;;;;;;;11.20;10.00;;;3.90;99.90;;;;;;4996100;28;20183;-54
2023/01/18 06:51:34;;;;;;;11.10;9.47;;;3.90;99.90;;;;;;4989148;28;20420;-56
2023/01/18 06:53:59;;;;;;;11.77;9.40;;;4.00;99.90;;;;;;4991531;28;20185;-55
2023/01/18 06:56:25;;;;;;;10.17;8.67;;;4.10;99.90;;;;;;4991706;28;20208;-54
2023/01/18 06:58:51;;;;;;;10.37;9.27;;;4.20;99.90;;;;;;4992047;28;20204;-53
2023/01/18 07:01:17;;;;;;;10.67;9.13;;;4.20;99.90;;;;;;4991846;28;20443;-55
2023/01/18 07:03:42;;;;;;;13.13;11.73;;;4.20;99.90;;;;;;4991484;28;20216;-52
2023/01/18 07:06:08;;;;;;;11.10;9.63;;;4.20;99.90;;;;;;4991521;28;20170;-51
2023/01/18 07:08:34;;;;;;;11.73;9.80;;;4.10;99.90;;;;;;4990898;28;20669;-51
2023/01/18 07:11:05;;;;;;;10.33;8.87;;;3.90;99.90;;;;;;4991755;28;20240;-53
2023/01/18 07:13:30;;;;;;;8.93;7.90;;;3.80;99.90;;;;;;4991811;28;20420;-54
2023/01/18 07:15:58;;;;;;;9.13;7.67;;;3.70;99.90;;;;;;4991327;28;20414;-53
2023/01/18 07:18:24;;;;;;;9.23;8.17;;;3.70;99.90;;;;;;4990589;28;20182;-54
2023/01/18 07:21:01;;;;;;;8.77;7.87;;;3.70;99.90;;;;;;4991656;28;20503;-54
2023/01/18 07:23:28;;;;;;;9.70;7.97;;;3.80;99.90;;;;;;4991466;28;20456;-54
2023/01/18 07:26:05;;;;;;;8.80;7.90;;;3.70;99.90;;;;;;4993229;28;20424;-51
2023/01/18 07:28:32;;;;;;;9.80;7.90;;;3.70;99.90;;;;;;4995585;28;20403;-55
2023/01/18 07:30:59;;;;;;;12.40;9.47;;;3.70;99.90;;;;;;4995805;28;20782;-55
2023/01/18 07:33:24;;;;;;;9.23;8.23;;;3.80;99.90;;;;;;4995382;28;20408;-55
2023/01/18 07:35:54;;;;;;;10.67;8.30;;;3.80;99.90;;;;;;4995199;28;20415;-54
2023/01/18 07:38:21;;;;;;;9.63;8.63;;;3.90;99.90;;;;;;4995338;28;20208;-54
2023/01/18 07:40:47;;;;;;;12.00;10.73;;;4.00;99.90;;;;;;4994084;28;20424;-51
2023/01/18 07:43:14;;;;;;;10.40;9.30;;;4.10;99.90;;;;;;4995197;28;20460;-53
2023/01/18 07:45:41;;;;;;;12.33;9.67;;;4.20;99.90;;;;;;4994860;28;20405;-54
2023/01/18 07:48:07;;;;;;;10.27;8.77;;;4.20;99.90;;;;;;4995159;28;20515;-55
2023/01/18 07:50:32;;;;;;;11.87;10.57;;;4.20;99.90;;;;;;4993784;28;20563;-52
2023/01/18 07:53:03;;;;;;;23.20;20.80;;;4.30;99.90;;;;;;4995231;28;20181;-52
2023/01/18 07:55:30;;;;;;;18.67;16.67;;;4.40;99.90;;;;;;4994848;28;20192;-53
2023/01/18 07:57:56;;;;;;;13.23;11.47;;;4.50;99.90;;;;;;4995018;28;20443;-54
2023/01/18 08:00:21;;;;;;;27.53;19.13;;;4.10;99.90;;;;;;4993915;28;20579;-54
2023/01/18 08:02:49;;;;;;;11.93;10.73;;;4.70;99.90;;;;;;4994898;28;20710;-52
2023/01/18 08:05:18;;;;;;;26.57;19.97;;;4.70;99.90;;;;;;5012194;28;20537;-53
2023/01/18 08:07:45;;;;;;;21.30;16.43;;;4.80;99.90;;;;;;5014494;28;20201;-52
2023/01/18 08:10:10;;;;;;;25.40;19.90;;;4.90;99.90;;;;;;5014535;28;20238;-53
2023/01/18 08:12:36;;;;;;;18.87;16.37;;;4.90;99.90;;;;;;5014318;28;20573;-55
2023/01/18 08:15:03;;;;;;;12.70;11.33;;;4.90;99.90;;;;;;5014560;28;20187;-51
2023/01/18 08:17:29;;;;;;;11.60;10.40;;;4.90;99.90;;;;;;5014320;28;20279;-54
2023/01/18 08:19:55;;;;;;;12.67;11.23;;;4.90;99.90;;;;;;5014229;28;20165;-52
2023/01/18 08:22:20;;;;;;;10.60;9.43;;;4.80;99.90;;;;;;5014488;28;20173;-56
2023/01/18 08:24:46;;;;;;;11.90;10.10;;;4.80;99.90;;;;;;5014000;28;20173;-51
2023/01/18 08:27:12;;;;;;;20.03;17.80;;;4.80;99.90;;;;;;5014085;28;20223;-53
2023/01/18 08:29:37;;;;;;;22.63;19.67;;;4.80;99.90;;;;;;5012700;28;20200;-55
2023/01/18 08:32:03;;;;;;;19.83;17.83;;;4.80;99.90;;;;;;5014125;28;20180;-54
2023/01/18 08:34:28;;;;;;;16.43;14.80;;;4.90;99.90;;;;;;5013640;28;20593;-56
2023/01/18 08:36:54;;;;;;;13.13;11.73;;;4.90;99.90;;;;;;5013074;28;20283;-53
2023/01/18 08:39:19;;;;;;;13.43;11.43;;;5.00;99.90;;;;;;5013729;28;20284;-53
2023/01/18 08:41:45;;;;;;;12.80;11.50;;;5.00;99.90;;;;;;5013679;28;20180;-54
2023/01/18 08:44:11;;;;;;;16.47;14.13;;;5.00;99.90;;;;;;5013485;28;20802;-54
2023/01/18 08:46:38;;;;;;;54.20;41.83;;;5.00;99.90;;;;;;5013479;28;20184;-53
2023/01/18 08:49:05;;;;;;;16.33;14.60;;;5.00;99.90;;;;;;5013778;28;20192;-54
2023/01/18 08:51:31;;;;;;;16.07;14.40;;;5.10;99.90;;;;;;5013621;28;20176;-55
2023/01/18 08:53:58;;;;;;;10.70;9.70;;;5.20;99.90;;;;;;5013311;28;20176;-55
2023/01/18 08:56:23;;;;;;;10.33;9.33;;;5.30;99.90;;;;;;5013671;28;20184;-54
2023/01/18 08:58:50;;;;;;;11.33;10.23;;;5.30;99.90;;;;;;5013576;28;20199;-55
2023/01/18 09:01:17;;;;;;;10.27;9.10;;;5.40;99.90;;;;;;5013820;28;20251;-54
2023/01/18 09:03:43;;;;;;;13.50;9.17;;;5.40;99.90;;;;;;5013180;28;20281;-55
2023/01/18 09:06:09;;;;;;;11.37;8.90;;;5.50;99.90;;;;;;5013454;28;20523;-53
2023/01/18 09:08:35;;;;;;;9.57;8.67;;;5.60;99.90;;;;;;5012038;28;20165;-54
2023/01/18 09:11:06;;;;;;;10.77;9.17;;;5.50;99.90;;;;;;5012438;28;20183;-53
2023/01/18 09:13:32;;;;;;;11.00;9.90;;;5.50;99.90;;;;;;5013439;28;20168;-55
2023/01/18 09:16:08;;;;;;;10.53;9.43;;;5.50;99.90;;;;;;5013077;28;20173;-56
2023/01/18 09:18:34;;;;;;;10.77;9.63;;;5.60;99.90;;;;;;5013345;28;20172;-50
2023/01/18 09:21:08;;;;;;;9.93;8.97;;;5.70;99.90;;;;;;5013101;28;20168;-54
2023/01/18 09:23:35;;;;;;;11.10;9.27;;;5.70;99.90;;;;;;5012856;28;20336;-52
2023/01/18 09:26:07;;;;;;;9.73;8.73;;;5.70;99.90;;;;;;5012946;28;20169;-50
2023/01/18 09:28:33;;;;;;;8.77;7.83;;;5.60;99.90;;;;;;5013183;28;20165;-54
2023/01/18 09:31:04;;;;;;;9.60;8.67;;;5.70;99.90;;;;;;5013099;28;20176;-55
2023/01/18 09:33:30;;;;;;;9.60;8.60;;;5.90;99.90;;;;;;5012878;28;20171;-53
2023/01/18 09:36:00;;;;;;;10.03;9.10;;;6.00;99.90;;;;;;5011511;28;20231;-53
2023/01/18 09:38:25;;;;;;;9.47;8.50;;;6.10;99.90;;;;;;5012943;28;20173;-52
2023/01/18 09:40:52;;;;;;;11.73;9.90;;;6.10;99.90;;;;;;5013205;28;20230;-52
2023/01/18 09:43:34;;;;;;;11.77;9.00;;;6.20;99.90;;;;;;5012750;28;20538;-55
2023/01/18 09:46:00;;;;;;;9.10;8.20;;;6.20;99.90;;;;;;5012482;28;20176;-54
2023/01/18 09:48:38;;;;;;;8.90;8.00;;;6.30;99.90;;;;;;5012228;28;20165;-55
2023/01/18 09:51:21;;;;;;;11.67;8.13;;;6.30;99.90;;;;;;5013196;28;20168;-52
2023/01/18 09:54:13;;;;;;;8.90;8.00;;;6.40;99.90;;;;;;5012383;28;20513;-51
2023/01/18 09:56:44;;;;;;;13.60;12.40;;;6.60;99.90;;;;;;5012539;28;20208;-53
2023/01/18 09:59:22;;;;;;;12.87;11.67;;;6.80;99.90;;;;;;5012657;28;20282;-53
2023/01/18 10:01:49;;;;;;;10.37;9.37;;;6.80;99.90;;;;;;5011271;28;20700;-54
2023/01/18 10:04:27;;;;;;;9.00;8.10;;;6.70;99.90;;;;;;5012268;28;20548;-52
2023/01/18 10:06:58;;;;;;;13.73;12.33;;;6.70;99.90;;;;;;5012228;28;20180;-53
2023/01/18 10:09:43;;;;;;;8.80;7.97;;;6.60;99.90;;;;;;5012485;28;20185;-52
2023/01/18 10:12:27;;;;;;;9.37;8.37;;;6.60;99.90;;;;;;5012321;28;20167;-52
2023/01/18 10:15:19;;;;;;;8.10;6.97;;;6.60;99.90;;;;;;5012114;28;20251;-51
2023/01/18 10:17:45;;;;;;;8.23;7.37;;;6.60;99.90;;;;;;5011941;28;20189;-52
2023/01/18 10:20:45;;;;;;;10.53;9.53;;;6.50;99.90;;;;;;5012192;28;20180;-53
2023/01/18 10:23:33;;;;;;;8.50;7.03;;;6.50;99.90;;;;;;5011967;28;20200;-51
2023/01/18 10:26:08;;;;;;;9.33;7.33;;;6.60;99.90;;;;;;5012201;28;20261;-51
2023/01/18 10:28:59;;;;;;;7.20;6.50;;;6.60;99.90;;;;;;5012398;28;20160;-50
2023/01/18 10:31:36;;;;;;;8.73;7.33;;;6.60;99.90;;;;;;5012242;28;20255;-53
2023/01/18 10:34:11;;;;;;;10.93;8.40;;;6.60;99.90;;;;;;5010375;28;20660;-53
2023/01/18 10:36:42;;;;;;;9.20;8.30;;;6.40;99.90;;;;;;5011466;28;20486;-55
2023/01/18 10:39:31;;;;;;;9.13;7.33;;;6.30;99.90;;;;;;5012010;28;20215;-53
2023/01/18 10:42:00;;;;;;;12.83;11.50;;;6.10;99.90;;;;;;5006605;28;20347;-53
2023/01/18 10:44:27;;;;;;;9.40;8.37;;;6.20;99.90;;;;;;5011427;28;20200;-55
2023/01/18 10:46:59;;;;;;;10.47;9.33;;;6.30;99.90;;;;;;5011962;28;20552;-53
2023/01/18 10:49:36;;;;;;;9.70;8.70;;;6.50;99.90;;;;;;5012105;28;20507;-53
2023/01/18 10:52:24;;;;;;;10.17;7.73;;;6.90;99.90;;;;;;5011738;28;20569;-55
2023/01/18 10:54:54;;;;;;;13.27;8.93;;;7.30;99.90;;;;;;5011452;28;20179;-55
2023/01/18 10:57:24;;;;;;;6.43;5.40;;;7.60;99.90;;;;;;5011498;28;20204;-53
2023/01/18 10:59:52;;;;;;;7.13;6.43;;;5.90;99.90;;;;;;5010217;28;20645;-55
2023/01/18 11:02:26;;;;;;;6.70;6.00;;;7.50;99.90;;;;;;5011630;28;20588;-53
2023/01/18 11:05:17;;;;;;;6.10;5.50;;;7.40;99.90;;;;;;5010379;28;20199;-53
2023/01/18 11:07:43;;;;;;;6.93;5.40;;;7.30;99.90;;;;;;5011339;28;20229;-52
2023/01/18 11:10:26;;;;;;;6.97;6.10;;;7.20;99.90;;;;;;5011776;28;20184;-53
2023/01/18 11:12:53;;;;;;;6.57;5.43;;;7.10;99.90;;;;;;5011609;28;20179;-52
2023/01/18 11:15:18;;;;;;;5.73;5.17;;;7.00;99.90;;;;;;5011459;28;20664;-52
2023/01/18 11:17:56;;;;;;;6.20;5.27;;;6.90;99.90;;;;;;5011347;28;20204;-52
2023/01/18 11:20:45;;;;;;;5.80;4.73;;;6.70;99.90;;;;;;5011521;28;20243;-52
2023/01/18 11:23:13;;;;;;;5.47;4.97;;;6.20;99.90;;;;;;5011411;28;20206;-53
2023/01/18 11:26:11;;;;;;;5.43;4.77;;;6.10;99.90;;;;;;5011366;28;20199;-52
2023/01/18 11:31:14;;;;;;;6.50;5.73;;;6.30;99.90;;;;;;5131347;22;20232;-53
2023/01/18 11:33:53;;;;;;;5.80;5.03;;;6.50;99.90;;;;;;4993829;28;20175;-53
2023/01/18 11:36:31;;;;;;;4.80;4.40;;;6.60;99.90;;;;;;5002369;28;20176;-53
2023/01/18 11:39:34;;;;;;;5.67;4.93;;;6.50;99.90;;;;;;5010299;28;20495;-54
2023/01/18 11:42:30;;;;;;;5.07;4.60;;;6.50;99.90;;;;;;4994171;28;20180;-51
2023/01/18 11:45:40;;;;;;;4.70;4.20;;;6.40;99.90;;;;;;4990073;28;20220;-52
2023/01/18 11:48:28;;;;;;;5.33;4.83;;;6.50;99.90;;;;;;4968785;28;20305;-52
2023/01/18 11:51:09;;;;;;;4.23;3.70;;;6.60;99.90;;;;;;4974415;28;20673;-52
2023/01/18 11:54:03;;;;;;;4.03;3.70;;;7.00;99.90;;;;;;4988601;28;20259;-52
2023/01/18 11:56:46;;;;;;;3.97;3.63;;;7.40;99.90;;;;;;4988825;28;20697;-52
2023/01/18 11:59:29;;;;;;;3.57;3.27;;;8.20;99.90;;;;;;4984181;28;20596;-57
2023/01/18 12:02:15;;;;;;;3.50;3.20;;;9.50;99.90;;;;;;4969187;28;20166;-53
2023/01/18 12:04:59;;;;;;;3.70;3.20;;;10.70;99.90;;;;;;4969182;28;20201;-53
2023/01/18 12:07:30;;;;;;;3.33;3.10;;;11.20;99.70;;;;;;4969318;28;20172;-53
2023/01/18 12:09:58;;;;;;;3.30;3.00;;;10.70;98.70;;;;;;4969595;28;20200;-54
2023/01/18 12:12:54;;;;;;;3.60;3.30;;;10.30;99.90;;;;;;4970310;28;20184;-53
2023/01/18 12:15:41;;;;;;;3.80;3.40;;;10.30;99.90;;;;;;4972729;28;20173;-52
2023/01/18 12:18:11;;;;;;;3.50;3.20;;;10.30;99.90;;;;;;4972369;28;20713;-53
2023/01/18 12:20:42;;;;;;;3.97;3.33;;;10.00;99.90;;;;;;4972701;28;20622;-52
2023/01/18 12:23:21;;;;;;;5.13;3.30;;;9.70;99.90;;;;;;4972698;28;20612;-52
2023/01/18 12:26:02;;;;;;;3.57;3.27;;;8.80;99.90;;;;;;4991019;28;20515;-51
2023/01/18 12:28:36;;;;;;;3.90;3.50;;;8.10;99.90;;;;;;4994363;28;20196;-54
2023/01/18 12:31:22;;;;;;;6.57;3.10;;;7.90;99.90;;;;;;4994352;28;20200;-53
2023/01/18 12:33:53;;;;;;;4.33;3.70;;;7.70;99.90;;;;;;4993997;28;20169;-52
2023/01/18 12:36:38;;;;;;;3.33;3.03;;;7.60;99.90;;;;;;4994478;28;20604;-52
2023/01/18 12:39:33;;;;;;;2.87;2.67;;;7.70;99.90;;;;;;4994344;28;20203;-51
2023/01/18 12:42:07;;;;;;;3.87;3.30;;;7.40;99.90;;;;;;4993873;28;20192;-52
2023/01/18 12:45:04;;;;;;;3.77;3.27;;;7.20;99.90;;;;;;4993841;28;20295;-53
2023/01/18 12:47:38;;;;;;;2.80;2.60;;;7.10;99.90;;;;;;4972162;28;20197;-52
2023/01/18 12:50:17;;;;;;;3.40;3.10;;;7.10;99.90;;;;;;4971046;28;20208;-52
2023/01/18 12:52:49;;;;;;;3.10;2.80;;;6.90;99.90;;;;;;4971135;28;20184;-53
2023/01/18 12:55:20;;;;;;;2.67;2.47;;;7.00;99.90;;;;;;4971031;28;20182;-51
2023/01/18 12:57:51;;;;;;;3.37;3.07;;;6.60;99.90;;;;;;4971181;28;20178;-52
2023/01/18 13:00:25;;;;;;;3.27;2.83;;;6.40;99.90;;;;;;4971031;28;20550;-52
2023/01/18 13:02:55;;;;;;;3.50;2.80;;;6.30;99.90;;;;;;4971098;28;20240;-50
2023/01/18 13:05:25;;;;;;;3.57;2.70;;;6.40;99.90;;;;;;4968746;28;20196;-53
2023/01/18 13:08:05;;;;;;;3.27;2.97;;;6.50;99.90;;;;;;4971860;28;20632;-52
2023/01/18 13:10:33;;;;;;;2.73;2.53;;;6.50;99.90;;;;;;4971918;28;20198;-52
2023/01/18 13:13:02;;;;;;;2.47;2.27;;;6.20;99.90;;;;;;4972003;28;20184;-51
2023/01/18 13:15:46;;;;;;;3.00;2.70;;;6.00;99.90;;;;;;4972346;28;20174;-52
2023/01/18 13:18:20;;;;;;;2.70;2.50;;;6.10;99.90;;;;;;4972477;28;20177;-52
2023/01/18 13:21:25;;;;;;;2.50;2.30;;;6.10;99.90;;;;;;4972382;28;20196;-51
2023/01/18 13:24:17;;;;;;;2.43;2.23;;;6.10;99.90;;;;;;4979497;28;20205;-51
2023/01/18 13:26:44;;;;;;;3.90;2.30;;;6.00;99.90;;;;;;4993987;28;20256;-51
2023/01/18 13:29:25;;;;;;;2.40;2.20;;;5.90;99.90;;;;;;4993759;28;20212;-49
2023/01/18 13:31:51;;;;;;;2.30;2.10;;;6.10;99.90;;;;;;4993876;28;20195;-50
2023/01/18 13:34:32;;;;;;;2.47;2.10;;;6.20;99.90;;;;;;4993725;28;20177;-50
2023/01/18 13:36:59;;;;;;;2.33;2.13;;;6.40;99.90;;;;;;4993851;28;20161;-49
2023/01/18 13:39:26;;;;;;;2.13;1.93;;;6.80;99.90;;;;;;4993866;28;20231;-50
2023/01/18 13:42:04;;;;;;;2.00;1.90;;;7.30;99.90;;;;;;4993683;28;20192;-52
2023/01/18 13:44:35;;;;;;;2.20;2.00;;;7.60;99.90;;;;;;4993500;28;20193;-50
2023/01/18 13:47:00;;;;;;;1.60;1.50;;;7.80;99.90;;;;;;4993657;28;20165;-51
2023/01/18 13:49:36;;;;;;;2.60;1.90;;;8.20;99.90;;;;;;4993526;28;20185;-51
2023/01/18 13:52:03;;;;;;;1.90;1.70;;;8.00;99.90;;;;;;4993823;28;20601;-50
2023/01/18 13:54:28;;;;;;;1.60;1.50;;;8.10;99.90;;;;;;4993156;28;20215;-49